Time;durP1;ratioP1;P1;durP2;ratioP2;P2;SDS_P1;SDS_P2;PMS_P1;PMS_P2;Temp;Humidity;BMP_temperature;BMP_pressure;BME280_temperature;BME280_humidity;BME280_pressure;Samples;Min_cycle;Max_cycle;Signal;HPM_P1;HPM_P2
2021/04/24 00:00:41;;;;;;;17.50;7.05;;;;;;;7.86;87.68;101983.28;4982926;28;20117;-72
2021/04/24 00:03:08;;;;;;;14.40;6.40;;;;;;;7.81;87.00;101980.75;4984729;28;20532;-72
2021/04/24 00:05:41;;;;;;;17.27;6.53;;;;;;;7.80;87.27;101984.53;4982490;28;20030;-71
2021/04/24 00:08:09;;;;;;;15.10;6.35;;;;;;;7.87;86.95;101987.56;4986955;28;20442;-71
2021/04/24 00:10:39;;;;;;;12.90;6.55;;;;;;;8.12;85.94;101987.78;4976208;28;20042;-72
2021/04/24 00:13:07;;;;;;;15.57;6.47;;;;;;;8.03;85.45;101986.13;4983842;28;20034;-72
2021/04/24 00:15:33;;;;;;;16.85;7.30;;;;;;;7.93;86.62;101981.81;4983900;28;20026;-72
2021/04/24 00:17:58;;;;;;;15.23;6.35;;;;;;;8.01;87.09;101982.97;4983002;28;20521;-71
2021/04/24 00:20:24;;;;;;;17.58;6.10;;;;;;;8.03;86.22;101978.84;4985368;28;20038;-71
2021/04/24 00:22:52;;;;;;;17.77;6.53;;;;;;;7.88;87.43;101976.53;4982126;28;20033;-71
2021/04/24 00:25:19;;;;;;;16.25;6.95;;;;;;;7.76;88.26;101978.19;4976838;28;20093;-71
2021/04/24 00:27:45;;;;;;;16.35;6.53;;;;;;;7.81;87.84;101980.75;4977653;28;20037;-70
2021/04/24 00:30:12;;;;;;;18.65;6.38;;;;;;;7.90;87.50;101977.03;4983071;28;21741;-70
2021/04/24 00:32:39;;;;;;;14.52;6.28;;;;;;;7.81;87.70;101980.75;4988861;28;20030;-71
2021/04/24 00:35:05;;;;;;;20.40;7.30;;;;;;;7.84;88.36;101980.16;4990354;28;20073;-71
2021/04/24 00:37:31;;;;;;;15.18;6.80;;;;;;;7.72;88.00;101983.38;4987316;28;20134;-71
2021/04/24 00:39:56;;;;;;;16.75;5.97;;;;;;;7.76;88.74;101975.50;4982710;28;20171;-71
2021/04/24 00:42:22;;;;;;;16.70;7.03;;;;;;;7.87;87.66;101976.84;4984765;28;20407;-71
2021/04/24 00:44:50;;;;;;;16.20;6.82;;;;;;;7.96;88.00;101973.13;4984465;28;20030;-71
2021/04/24 00:47:18;;;;;;;18.25;6.97;;;;;;;7.84;88.51;101974.78;4987099;28;20042;-71
2021/04/24 00:49:43;;;;;;;18.40;6.68;;;;;;;7.92;87.39;101977.50;4986288;28;20098;-71
2021/04/24 00:52:09;;;;;;;14.48;6.65;;;;;;;7.81;88.44;101973.50;4972608;28;20087;-71
2021/04/24 00:54:34;;;;;;;15.00;5.70;;;;;;;7.80;88.08;101973.81;4988818;28;20066;-72
2021/04/24 00:57:03;;;;;;;15.88;6.00;;;;;;;7.89;88.00;101980.03;4993019;28;20052;-71
2021/04/24 00:59:30;;;;;;;17.63;6.75;;;;;;;7.74;88.74;101986.50;4987070;28;20458;-71
2021/04/24 01:01:56;;;;;;;14.30;6.05;;;;;;;7.83;88.85;101982.03;4981942;28;20084;-71
2021/04/24 01:04:22;;;;;;;19.33;5.88;;;;;;;7.84;88.05;101972.88;5003861;28;20030;-71
2021/04/24 01:06:48;;;;;;;14.15;6.40;;;;;;;7.94;86.97;101986.06;4993765;28;20042;-71
2021/04/24 01:09:14;;;;;;;19.35;6.65;;;;;;;7.78;87.89;101979.44;4989989;28;20029;-71
2021/04/24 01:11:40;;;;;;;14.55;5.82;;;;;;;7.72;88.62;101974.53;4993722;28;20417;-71
2021/04/24 01:14:05;;;;;;;16.95;5.93;;;;;;;8.03;87.14;101983.44;4989247;28;20042;-71
2021/04/24 01:16:31;;;;;;;22.25;6.10;;;;;;;7.76;87.83;101987.00;4987225;28;20057;-71
2021/04/24 01:18:56;;;;;;;15.32;6.55;;;;;;;7.58;90.04;101976.44;4982410;28;20085;-71
2021/04/24 01:21:23;;;;;;;14.23;5.90;;;;;;;7.74;88.99;101983.06;4990577;28;20042;-71
2021/04/24 01:23:53;;;;;;;15.95;6.50;;;;;;;7.70;89.64;101980.19;4982597;28;20435;-72
2021/04/24 01:26:18;;;;;;;16.35;6.40;;;;;;;7.87;88.49;101984.91;4984837;28;20049;-71
2021/04/24 01:28:45;;;;;;;12.55;6.00;;;;;;;7.78;88.44;101982.13;4988650;28;20734;-71
2021/04/24 01:31:10;;;;;;;19.25;6.88;;;;;;;7.74;89.06;101972.34;4991718;28;20084;-71
2021/04/24 01:33:36;;;;;;;18.00;6.18;;;;;;;7.64;89.94;101975.22;4982917;28;20233;-71
2021/04/24 01:36:02;;;;;;;18.42;6.32;;;;;;;7.69;89.96;101964.38;4990745;28;20376;-71
2021/04/24 01:38:27;;;;;;;16.75;6.88;;;;;;;7.72;89.37;101969.16;4988934;28;20038;-71
2021/04/24 01:40:52;;;;;;;13.70;5.93;;;;;;;7.57;89.72;101964.16;4991150;28;20107;-71
2021/04/24 01:43:18;;;;;;;15.02;6.30;;;;;;;7.68;89.92;101966.28;4979023;28;20030;-71
2021/04/24 01:45:44;;;;;;;14.80;6.35;;;;;;;7.41;90.51;101966.34;4992852;28;20504;-71
2021/04/24 01:48:10;;;;;;;23.50;5.88;;;;;;;7.43;91.34;101956.13;4990873;28;20033;-71
2021/04/24 01:50:40;;;;;;;13.60;5.95;;;;;;;7.30;91.50;101957.72;4978593;28;20110;-71
2021/04/24 01:53:09;;;;;;;18.35;6.25;;;;;;;7.20;91.64;101965.97;4982301;28;20045;-71
2021/04/24 01:55:37;;;;;;;15.15;6.10;;;;;;;7.33;92.17;101964.38;4976919;28;20039;-71
2021/04/24 01:58:06;;;;;;;24.23;6.15;;;;;;;7.12;92.72;101961.31;4990874;28;20556;-71
2021/04/24 02:00:40;;;;;;;14.63;6.15;;;;;;;6.76;94.26;101967.66;4986165;28;20109;-71
2021/04/24 02:03:08;;;;;;;14.60;6.10;;;;;;;6.73;95.21;101962.91;4983423;28;20046;-71
2021/04/24 02:05:34;;;;;;;18.77;6.00;;;;;;;6.62;95.61;101953.50;4992175;28;20606;-71
2021/04/24 02:08:07;;;;;;;16.08;5.65;;;;;;;6.83;94.94;101955.47;4988633;28;20148;-71
2021/04/24 02:10:35;;;;;;;15.73;6.05;;;;;;;7.16;93.29;101956.94;4985711;28;20398;-71
2021/04/24 02:13:03;;;;;;;20.27;6.07;;;;;;;6.98;93.58;101955.19;4987170;28;20034;-71
2021/04/24 02:15:29;;;;;;;19.98;6.20;;;;;;;6.75;94.63;101950.03;4995493;28;20041;-71
2021/04/24 02:17:54;;;;;;;16.00;6.85;;;;;;;6.99;94.12;101948.72;5005515;28;20034;-71
2021/04/24 02:20:20;;;;;;;18.00;6.30;;;;;;;6.85;94.62;101947.94;4992272;28;20445;-71
2021/04/24 02:22:46;;;;;;;17.50;6.50;;;;;;;7.11;94.90;101948.22;4990719;28;20042;-71
2021/04/24 02:25:14;;;;;;;14.20;6.18;;;;;;;7.11;94.57;101942.88;4986747;28;20045;-72
2021/04/24 02:27:40;;;;;;;19.48;6.50;;;;;;;6.89;95.50;101935.53;4991292;28;20034;-72
2021/04/24 02:30:08;;;;;;;17.45;6.32;;;;;;;6.95;95.04;101939.69;4988544;28;20207;-72
2021/04/24 02:32:34;;;;;;;16.90;6.72;;;;;;;6.93;95.38;101939.22;4989254;28;20033;-72
2021/04/24 02:35:00;;;;;;;16.40;6.82;;;;;;;6.79;96.58;101946.47;4972724;28;20466;-72
2021/04/24 02:37:26;;;;;;;22.85;7.07;;;;;;;6.70;96.18;101934.84;4991025;28;20038;-72
2021/04/24 02:39:53;;;;;;;18.40;6.50;;;;;;;6.60;95.88;101931.59;4986675;28;20502;-72
2021/04/24 02:42:24;;;;;;;15.07;6.95;;;;;;;6.51;97.41;101930.66;4987404;28;20030;-72
2021/04/24 02:44:52;;;;;;;18.58;7.68;;;;;;;6.49;96.28;101930.97;4991630;28;20057;-72
2021/04/24 02:47:19;;;;;;;18.95;8.23;;;;;;;6.50;95.79;101935.25;4989874;28;20500;-71
2021/04/24 02:49:45;;;;;;;20.73;8.60;;;;;;;6.56;95.79;101939.41;4982664;28;20038;-71
2021/04/24 02:52:10;;;;;;;19.35;8.27;;;;;;;6.33;96.59;101934.97;4991958;28;20081;-72
2021/04/24 02:54:36;;;;;;;22.80;9.05;;;;;;;6.06;96.77;101932.25;4979430;28;20431;-72
2021/04/24 02:57:02;;;;;;;21.20;8.50;;;;;;;5.97;98.00;101931.31;4987606;28;20503;-71
2021/04/24 02:59:28;;;;;;;23.98;8.90;;;;;;;5.89;98.70;101940.00;4984392;28;20064;-72
2021/04/24 03:01:55;;;;;;;16.73;7.70;;;;;;;5.58;99.00;101938.84;4988375;28;20058;-72
2021/04/24 03:04:20;;;;;;;20.23;8.70;;;;;;;5.61;98.85;101938.28;4990102;28;20025;-71
2021/04/24 03:06:46;;;;;;;18.00;8.18;;;;;;;5.68;98.70;101933.34;4985046;28;20045;-71
2021/04/24 03:09:12;;;;;;;23.80;9.32;;;;;;;5.88;99.14;101933.09;4991393;28;20042;-72
2021/04/24 03:11:38;;;;;;;24.42;9.40;;;;;;;5.85;98.11;101944.34;4987351;28;20113;-72
2021/04/24 03:14:05;;;;;;;21.23;8.60;;;;;;;5.71;98.74;101936.22;4977992;28;20067;-72
2021/04/24 03:16:31;;;;;;;19.73;8.45;;;;;;;5.77;98.63;101942.31;4975792;28;20042;-71
2021/04/24 03:18:58;;;;;;;23.85;8.40;;;;;;;5.77;98.83;101939.66;4979783;28;20123;-71
2021/04/24 03:21:25;;;;;;;21.15;9.07;;;;;;;5.86;98.73;101932.59;4984788;28;20038;-71
2021/04/24 03:23:52;;;;;;;23.38;9.20;;;;;;;6.01;98.36;101933.13;4991669;28;20037;-72
2021/04/24 03:26:18;;;;;;;23.55;9.18;;;;;;;5.92;98.02;101940.22;4986237;28;20031;-72
2021/04/24 03:28:43;;;;;;;18.33;7.88;;;;;;;5.82;98.85;101934.22;4987243;28;20076;-72
2021/04/24 03:31:10;;;;;;;21.58;8.65;;;;;;;5.80;100.00;101933.72;4987730;28;20034;-72
2021/04/24 03:33:36;;;;;;;27.10;9.10;;;;;;;5.94;100.00;101937.28;4981684;28;20038;-72
2021/04/24 03:36:02;;;;;;;22.45;9.23;;;;;;;6.05;100.00;101941.34;4985466;28;20038;-71
2021/04/24 03:38:28;;;;;;;23.88;9.45;;;;;;;6.01;100.00;101935.81;4988153;28;20033;-72
2021/04/24 03:40:53;;;;;;;20.40;8.65;;;;;;;6.09;100.00;101934.34;4989219;28;20030;-72
2021/04/24 03:43:19;;;;;;;25.45;10.07;;;;;;;6.06;100.00;101925.03;4978966;28;20506;-71
2021/04/24 03:45:44;;;;;;;19.88;8.20;;;;;;;6.01;100.00;101935.81;4972880;28;20041;-72
2021/04/24 03:48:10;;;;;;;20.50;9.18;;;;;;;6.09;100.00;101929.00;4981768;28;20035;-71
2021/04/24 03:50:35;;;;;;;18.08;8.27;;;;;;;6.24;100.00;101934.09;5014576;22;20136;-71
2021/04/24 03:53:01;;;;;;;17.65;8.35;;;;;;;6.13;99.72;101936.16;5026491;28;20073;-71
2021/04/24 03:55:26;;;;;;;17.73;8.45;;;;;;;6.12;99.62;101936.41;5033531;28;20489;-71
2021/04/24 03:57:56;;;;;;;26.55;9.43;;;;;;;6.01;100.00;101937.69;5026899;28;20108;-73
2021/04/24 04:00:24;;;;;;;24.75;8.90;;;;;;;6.16;100.00;101943.56;5008216;28;20038;-70
2021/04/24 04:02:57;;;;;;;22.58;8.90;;;;;;;6.13;100.00;101943.38;5011850;28;20044;-71
2021/04/24 04:05:27;;;;;;;25.38;8.00;;;;;;;5.90;100.00;101949.63;5013373;28;20037;-72
2021/04/24 04:07:53;;;;;;;25.25;9.27;;;;;;;5.73;100.00;101949.31;5014781;28;20052;-73
2021/04/24 04:10:20;;;;;;;18.85;8.68;;;;;;;6.06;100.00;101951.75;5012110;28;21185;-72
2021/04/24 04:12:48;;;;;;;20.83;8.45;;;;;;;6.26;100.00;101950.63;5012369;28;20116;-72
2021/04/24 04:15:15;;;;;;;23.63;9.00;;;;;;;6.23;100.00;101956.56;5019828;28;20036;-72
2021/04/24 04:17:41;;;;;;;20.30;8.65;;;;;;;6.23;100.00;101952.00;5017395;28;20046;-72
2021/04/24 04:20:09;;;;;;;21.67;8.07;;;;;;;6.27;100.00;101957.59;5002869;28;20116;-72
2021/04/24 04:22:36;;;;;;;22.77;8.27;;;;;;;6.23;100.00;101952.00;4999232;28;20129;-72
2021/04/24 04:25:05;;;;;;;21.55;9.40;;;;;;;6.04;100.00;101953.16;5010534;28;20074;-73
2021/04/24 04:27:31;;;;;;;18.23;8.18;;;;;;;6.10;100.00;101963.47;5007785;28;20121;-72
2021/04/24 04:29:56;;;;;;;19.60;7.85;;;;;;;6.08;100.00;101951.47;5008637;28;20447;-73
2021/04/24 04:32:22;;;;;;;22.08;8.68;;;;;;;6.28;100.00;101953.81;5015427;28;20030;-72
2021/04/24 04:34:49;;;;;;;24.35;7.50;;;;;;;6.53;100.00;101960.59;5003369;28;20108;-72
2021/04/24 04:37:14;;;;;;;19.25;7.60;;;;;;;6.82;100.00;101961.13;5014714;28;20091;-72
2021/04/24 04:39:40;;;;;;;18.65;7.45;;;;;;;6.85;100.00;101960.53;5013554;28;20029;-74
2021/04/24 04:42:07;;;;;;;24.80;8.15;;;;;;;6.94;100.00;101959.56;5019077;28;20402;-73
2021/04/24 04:44:33;;;;;;;20.98;7.05;;;;;;;6.92;100.00;101964.41;5025230;28;20068;-72
2021/04/24 04:46:59;;;;;;;15.95;6.65;;;;;;;7.15;100.00;101960.72;5017755;28;20034;-73
2021/04/24 04:49:24;;;;;;;21.25;7.32;;;;;;;7.25;99.84;101959.72;5016536;28;20117;-72
2021/04/24 04:51:50;;;;;;;25.27;7.78;;;;;;;7.34;98.90;101955.22;5024451;28;20056;-72
2021/04/24 04:54:15;;;;;;;13.45;6.05;;;;;;;7.54;97.83;101954.00;5017903;28;20055;-71
2021/04/24 04:56:41;;;;;;;21.33;7.07;;;;;;;7.71;96.60;101954.94;5023986;28;20034;-72
2021/04/24 04:59:06;;;;;;;19.92;7.03;;;;;;;7.81;96.12;101948.56;5025123;28;20442;-71
2021/04/24 05:01:31;;;;;;;20.75;6.05;;;;;;;7.87;95.20;101944.66;5019214;28;20762;-72
2021/04/24 05:03:57;;;;;;;14.57;5.65;;;;;;;8.02;94.75;101946.97;5023528;28;20022;-72
2021/04/24 05:06:23;;;;;;;13.43;4.72;;;;;;;8.13;93.51;101949.09;5023225;28;20374;-73
2021/04/24 05:08:48;;;;;;;13.48;4.85;;;;;;;8.16;92.43;101951.19;5010945;28;20105;-72
2021/04/24 05:11:13;;;;;;;10.05;4.53;;;;;;;8.31;91.34;101951.94;5027535;28;20059;-72
2021/04/24 05:13:39;;;;;;;13.75;4.78;;;;;;;8.17;91.48;101943.91;5018377;28;20026;-72
2021/04/24 05:16:05;;;;;;;16.00;4.43;;;;;;;8.24;91.29;101949.66;5014400;28;20506;-72
2021/04/24 05:18:31;;;;;;;13.00;4.63;;;;;;;8.28;91.51;101961.41;5016596;28;20084;-73
2021/04/24 05:20:56;;;;;;;9.40;4.40;;;;;;;8.31;91.56;101958.09;5013332;28;20018;-71
2021/04/24 05:23:22;;;;;;;12.85;4.45;;;;;;;8.46;90.72;101960.38;5012614;28;20038;-71
2021/04/24 05:25:47;;;;;;;12.15;5.00;;;;;;;8.39;89.52;101951.97;5007758;28;20114;-71
2021/04/24 05:28:14;;;;;;;12.65;4.53;;;;;;;8.66;88.18;101956.38;5012303;28;20033;-71
2021/04/24 05:30:40;;;;;;;10.55;3.97;;;;;;;8.71;87.14;101950.88;5010193;28;20454;-71
2021/04/24 05:33:05;;;;;;;15.73;4.30;;;;;;;8.74;86.88;101950.25;5007405;28;20119;-71
2021/04/24 05:35:31;;;;;;;10.50;4.13;;;;;;;8.76;86.97;101945.38;4998213;28;20152;-71
2021/04/24 05:37:56;;;;;;;17.02;6.45;;;;;;;8.70;87.27;101957.34;5002503;28;20041;-72
2021/04/24 05:40:22;;;;;;;16.73;4.65;;;;;;;8.96;86.10;101959.03;5014811;28;20083;-72
2021/04/24 05:42:47;;;;;;;15.50;3.80;;;;;;;9.09;85.69;101962.72;5014541;28;20037;-72
2021/04/24 05:45:14;;;;;;;11.95;4.40;;;;;;;9.24;85.04;101954.19;5005467;28;20544;-72
2021/04/24 05:47:45;;;;;;;11.48;3.95;;;;;;;9.18;85.73;101960.81;5017018;28;20397;-71
2021/04/24 05:50:12;;;;;;;15.40;3.90;;;;;;;9.49;84.89;101961.50;5002816;28;20037;-71
2021/04/24 05:52:38;;;;;;;10.27;3.83;;;;;;;9.61;84.17;101950.94;5014908;28;20045;-71
2021/04/24 05:55:06;;;;;;;12.57;3.70;;;;;;;9.67;83.37;101962.31;5020233;28;20030;-72
2021/04/24 05:57:31;;;;;;;10.20;3.42;;;;;;;9.83;82.18;101958.06;5017731;28;20030;-72
2021/04/24 05:59:57;;;;;;;12.25;3.42;;;;;;;10.23;79.75;101955.97;5008463;28;20084;-72
2021/04/24 06:02:22;;;;;;;11.57;3.20;;;;;;;10.21;79.40;101950.91;5012511;28;20494;-73
2021/04/24 06:04:48;;;;;;;16.42;3.72;;;;;;;10.10;79.72;101944.31;5005711;28;20130;-72
2021/04/24 06:07:14;;;;;;;11.98;3.47;;;;;;;10.02;78.66;101955.84;4996531;28;20038;-71
2021/04/24 06:09:40;;;;;;;13.77;3.55;;;;;;;10.01;79.93;101959.63;5004071;28;20061;-72
2021/04/24 06:12:06;;;;;;;12.38;3.28;;;;;;;10.26;79.62;101952.66;4997242;28;20405;-72
2021/04/24 06:14:31;;;;;;;14.02;3.67;;;;;;;10.42;78.55;101951.03;5005146;28;20463;-71
2021/04/24 06:16:58;;;;;;;14.73;3.50;;;;;;;10.35;79.07;101964.19;5010485;28;20136;-73
2021/04/24 06:19:24;;;;;;;12.05;3.35;;;;;;;10.24;79.54;101960.28;5012752;28;20414;-72
2021/04/24 06:21:49;;;;;;;10.50;2.80;;;;;;;10.22;80.52;101965.19;5011608;28;20030;-72
2021/04/24 06:24:15;;;;;;;11.32;2.85;;;;;;;10.52;78.08;101950.69;5010033;28;20084;-71
2021/04/24 06:26:40;;;;;;;15.95;3.28;;;;;;;10.67;78.53;101961.72;5018790;28;20637;-72
2021/04/24 06:29:06;;;;;;;18.83;3.05;;;;;;;10.85;76.98;101954.34;5027477;28;20465;-73
2021/04/24 06:31:31;;;;;;;12.23;3.08;;;;;;;10.90;76.47;101943.38;5008423;28;20022;-72
2021/04/24 06:33:57;;;;;;;17.88;3.63;;;;;;;10.68;76.79;101944.44;5016087;28;20017;-72
2021/04/24 06:36:23;;;;;;;14.70;3.13;;;;;;;11.10;75.82;101953.44;5020476;28;20418;-72
2021/04/24 06:38:49;;;;;;;12.48;3.17;;;;;;;11.37;74.80;101944.88;5000398;28;20730;-72
2021/04/24 06:41:14;;;;;;;14.93;3.85;;;;;;;11.58;74.21;101947.56;5004791;28;20146;-71
2021/04/24 06:43:40;;;;;;;17.83;3.25;;;;;;;11.74;73.05;101943.19;5001852;28;20070;-71
2021/04/24 06:46:06;;;;;;;13.45;3.17;;;;;;;11.94;72.41;101947.78;4999354;28;20038;-71
2021/04/24 06:48:31;;;;;;;16.02;3.00;;;;;;;12.04;72.73;101941.94;4999057;28;20022;-72
2021/04/24 06:50:58;;;;;;;14.15;2.78;;;;;;;11.95;72.10;101938.53;4997872;28;20040;-72
2021/04/24 06:53:26;;;;;;;11.57;3.05;;;;;;;12.26;70.27;101941.56;4995739;28;20026;-73
2021/04/24 06:55:52;;;;;;;13.73;3.30;;;;;;;12.17;70.06;101948.19;5012849;28;20038;-72
2021/04/24 06:58:19;;;;;;;11.25;2.97;;;;;;;12.33;69.71;101949.16;5001928;28;20494;-72
2021/04/24 07:00:45;;;;;;;16.30;3.25;;;;;;;12.68;68.06;101948.41;5012744;28;20038;-72
2021/04/24 07:03:10;;;;;;;18.10;3.22;;;;;;;12.81;66.79;101945.72;5030514;28;20508;-72
2021/04/24 07:05:36;;;;;;;12.88;3.28;;;;;;;12.79;67.15;101956.06;5018396;28;20022;-72
2021/04/24 07:08:02;;;;;;;10.85;2.75;;;;;;;13.05;65.74;101945.72;5016810;28;20037;-72
2021/04/24 07:10:27;;;;;;;14.38;2.92;;;;;;;13.27;65.30;101937.94;5007819;28;20030;-73
2021/04/24 07:12:53;;;;;;;14.48;2.67;;;;;;;13.42;63.88;101953.47;5007156;28;20041;-72
2021/04/24 07:15:18;;;;;;;9.57;2.65;;;;;;;13.17;65.98;101951.13;5012695;28;20080;-72
2021/04/24 07:17:44;;;;;;;15.63;3.33;;;;;;;13.46;63.20;101948.16;5002245;28;20037;-72
2021/04/24 07:20:10;;;;;;;16.58;3.40;;;;;;;13.59;63.00;101944.28;5003449;28;20034;-72
2021/04/24 07:22:37;;;;;;;11.60;2.88;;;;;;;13.78;62.57;101947.13;5007563;28;20049;-73
2021/04/24 07:25:03;;;;;;;13.88;2.67;;;;;;;13.94;62.42;101939.06;5005639;28;20044;-72
2021/04/24 07:27:29;;;;;;;12.48;3.08;;;;;;;14.10;61.02;101934.50;5024412;28;20046;-73
2021/04/24 07:29:54;;;;;;;12.77;2.55;;;;;;;14.29;58.95;101940.84;5013023;28;20042;-72
2021/04/24 07:32:20;;;;;;;18.67;3.75;;;;;;;14.54;57.69;101943.41;5002335;28;20081;-72
2021/04/24 07:34:46;;;;;;;7.32;2.83;;;;;;;14.29;57.38;101938.13;5012221;28;20041;-70
2021/04/24 07:37:11;;;;;;;19.05;3.47;;;;;;;14.27;58.03;101939.59;5003979;28;20083;-71
2021/04/24 07:39:37;;;;;;;8.07;3.10;;;;;;;14.70;57.81;101936.06;5009103;28;20499;-73
2021/04/24 07:42:03;;;;;;;11.30;2.70;;;;;;;14.67;57.32;101942.19;5012332;28;20052;-73
2021/04/24 07:44:28;;;;;;;10.52;2.80;;;;;;;14.81;56.92;101931.66;5012461;28;20103;-72
2021/04/24 07:46:54;;;;;;;11.48;3.67;;;;;;;14.91;56.06;101947.41;4998246;28;20483;-73
2021/04/24 07:49:20;;;;;;;8.43;3.50;;;;;;;15.09;55.47;101937.75;5000016;28;20026;-73
2021/04/24 07:51:46;;;;;;;11.10;2.60;;;;;;;14.94;55.92;101942.06;4990631;28;20148;-73
2021/04/24 07:54:13;;;;;;;10.15;2.63;;;;;;;15.14;55.02;101954.56;5002414;28;20030;-73
2021/04/24 07:56:40;;;;;;;10.45;3.30;;;;;;;15.38;54.45;101950.81;5005775;28;20031;-71
2021/04/24 07:59:05;;;;;;;12.50;2.50;;;;;;;15.15;54.13;101944.50;5005306;28;20045;-73
2021/04/24 08:01:31;;;;;;;8.15;2.50;;;;;;;15.67;53.25;101947.59;5001074;28;20545;-73
2021/04/24 08:03:56;;;;;;;8.77;2.50;;;;;;;15.77;52.08;101952.47;5018142;28;20533;-73
2021/04/24 08:06:22;;;;;;;12.57;2.65;;;;;;;16.11;51.67;101951.56;5014566;28;20113;-72
2021/04/24 08:08:50;;;;;;;11.15;2.78;;;;;;;15.83;51.44;101956.44;5012102;28;20080;-72
2021/04/24 08:11:16;;;;;;;8.77;2.80;;;;;;;15.52;51.71;101955.81;5006704;28;20084;-72
2021/04/24 08:13:42;;;;;;;8.43;2.60;;;;;;;15.59;52.74;101956.75;5005149;28;20088;-72
2021/04/24 08:16:07;;;;;;;8.25;2.92;;;;;;;15.21;52.31;101962.09;4994286;28;20036;-73
2021/04/24 08:18:33;;;;;;;7.97;2.17;;;;;;;14.73;53.05;101974.09;5010461;28;20052;-72
2021/04/24 08:20:58;;;;;;;9.15;2.80;;;;;;;15.46;51.68;101962.66;5001122;28;20108;-72
2021/04/24 08:23:24;;;;;;;12.82;2.83;;;;;;;16.01;51.30;101975.81;5003754;28;20498;-73
2021/04/24 08:25:49;;;;;;;10.15;2.53;;;;;;;16.28;50.81;101972.06;5010569;28;20084;-72
2021/04/24 08:28:14;;;;;;;10.43;2.75;;;;;;;16.45;50.29;101970.84;4996678;28;20053;-72
2021/04/24 08:30:40;;;;;;;13.15;2.70;;;;;;;16.66;49.89;101972.03;5009773;28;20038;-73
2021/04/24 08:33:07;;;;;;;11.27;2.83;;;;;;;16.69;48.67;101975.94;5005711;28;20030;-72
2021/04/24 08:35:33;;;;;;;9.35;2.45;;;;;;;17.27;48.81;101971.00;5013718;28;20033;-72
2021/04/24 08:37:59;;;;;;;10.77;2.67;;;;;;;17.20;48.59;101973.63;5007545;28;20030;-73
2021/04/24 08:40:24;;;;;;;11.95;3.03;;;;;;;17.03;49.08;101973.00;5000639;28;20458;-73
2021/04/24 08:42:51;;;;;;;12.32;2.78;;;;;;;16.19;49.38;101971.53;4996503;28;20406;-72
2021/04/24 08:45:18;;;;;;;11.20;2.80;;;;;;;16.35;49.28;101966.78;5009467;28;20399;-72
2021/04/24 08:47:46;;;;;;;8.63;2.63;;;;;;;16.35;50.05;101972.22;5005746;28;20121;-73
2021/04/24 08:50:14;;;;;;;6.60;2.45;;;;;;;16.73;48.25;101974.06;5003658;28;20030;-72
2021/04/24 08:52:41;;;;;;;11.57;2.08;;;;;;;17.31;47.07;101972.63;5006523;28;20038;-73
2021/04/24 08:55:08;;;;;;;7.20;3.17;;;;;;;17.35;46.32;101978.13;5009546;28;20065;-73
2021/04/24 08:57:36;;;;;;;7.43;1.92;;;;;;;16.84;46.72;101977.75;5006327;28;20025;-73
2021/04/24 09:00:04;;;;;;;12.25;2.28;;;;;;;17.17;47.33;101977.88;5007332;28;20041;-73
2021/04/24 09:02:29;;;;;;;7.05;2.15;;;;;;;17.58;43.92;101987.81;5022376;28;20030;-73
2021/04/24 09:04:55;;;;;;;6.03;2.22;;;;;;;17.86;42.82;101990.13;5010497;28;20154;-73
2021/04/24 09:07:20;;;;;;;5.75;2.20;;;;;;;17.60;42.95;101984.72;5009511;28;20057;-73
2021/04/24 09:09:56;;;;;;;11.73;2.35;;;;;;;18.11;43.70;101991.22;5006492;28;20116;-73
2021/04/24 09:12:39;;;;;;;6.15;2.00;;;;;;;18.14;43.87;101987.72;5014428;28;20034;-72
2021/04/24 09:15:26;;;;;;;9.93;2.60;;;;;;;17.96;44.39;101990.25;5002027;28;20088;-72
2021/04/24 09:18:05;;;;;;;6.28;1.83;;;;;;;18.38;42.75;101984.50;5005500;28;20173;-73
2021/04/24 09:20:43;;;;;;;5.65;1.92;;;;;;;18.44;43.16;101984.97;5007013;28;20032;-73
2021/04/24 09:23:08;;;;;;;9.07;2.70;;;;;;;18.19;42.13;101981.16;4999830;28;20041;-73
2021/04/24 09:26:02;;;;;;;6.85;2.20;;;;;;;17.63;42.47;101981.28;5012571;28;20445;-73
2021/04/24 09:28:32;;;;;;;6.55;2.00;;;;;;;17.12;42.92;101981.72;5005916;28;20482;-73
2021/04/24 09:31:08;;;;;;;5.97;2.13;;;;;;;16.54;42.45;101985.78;5011415;28;20038;-73
2021/04/24 09:33:35;;;;;;;9.27;2.05;;;;;;;16.65;43.38;101988.69;5005902;28;20038;-73
2021/04/24 09:36:01;;;;;;;5.40;1.60;;;;;;;16.80;42.94;101983.13;5003980;28;20042;-73
2021/04/24 09:38:28;;;;;;;5.55;1.63;;;;;;;17.25;43.99;101979.53;5009542;28;20033;-73
2021/04/24 09:41:07;;;;;;;8.27;1.80;;;;;;;17.42;40.54;101979.00;5008225;28;20041;-72
2021/04/24 09:44:03;;;;;;;4.18;1.58;;;;;;;17.34;40.04;101987.47;5001626;28;20479;-73
2021/04/24 09:46:36;;;;;;;5.07;2.00;;;;;;;17.28;41.05;101975.31;5003353;28;20053;-73
2021/04/24 09:49:20;;;;;;;3.63;1.63;;;;;;;17.74;40.77;101983.00;5008455;28;20037;-72
2021/04/24 09:51:47;;;;;;;2.60;1.23;;;;;;;17.89;40.58;101983.94;5014535;22;20266;-75
2021/04/24 09:54:14;;;;;;;7.95;2.13;;;;;;;17.99;39.93;101986.78;4996249;28;20061;-75
2021/04/24 09:56:40;;;;;;;8.45;2.30;;;;;;;17.84;39.56;101982.34;4997134;28;20034;-75
2021/04/24 09:59:09;;;;;;;8.63;1.92;;;;;;;17.93;40.24;101988.28;4993028;28;20034;-75
2021/04/24 10:01:38;;;;;;;8.15;2.10;;;;;;;17.66;40.19;101980.53;4992847;28;20045;-74
2021/04/24 10:04:04;;;;;;;6.47;1.90;;;;;;;17.38;42.00;101975.44;4980918;28;20045;-76
2021/04/24 10:06:41;;;;;;;6.10;1.85;;;;;;;17.61;41.74;101972.69;4991674;28;20037;-75
2021/04/24 10:09:13;;;;;;;4.65;1.70;;;;;;;17.78;40.85;101972.91;4988110;28;20558;-75
2021/04/24 10:11:42;;;;;;;4.65;1.33;;;;;;;18.07;36.92;101978.69;4991715;28;20049;-75
2021/04/24 10:14:08;;;;;;;5.82;1.40;;;;;;;17.95;35.93;101985.19;4991207;28;20017;-76
2021/04/24 10:16:44;;;;;;;4.90;1.35;;;;;;;17.55;36.60;101974.97;4984216;28;20415;-75
2021/04/24 10:19:13;;;;;;;2.65;1.30;;;;;;;17.66;38.38;101977.81;4994372;28;20030;-76
2021/04/24 10:21:40;;;;;;;3.67;1.40;;;;;;;17.75;36.65;101981.06;4996866;28;20402;-76
2021/04/24 10:24:07;;;;;;;2.50;1.30;;;;;;;17.55;35.22;101980.41;4985472;28;20530;-75
2021/04/24 10:26:33;;;;;;;5.95;1.70;;;;;;;17.52;36.31;101989.31;4987189;28;20380;-76
2021/04/24 10:29:00;;;;;;;6.03;1.77;;;;;;;17.93;37.31;101974.66;4986580;28;20049;-75
2021/04/24 10:31:27;;;;;;;3.38;1.55;;;;;;;18.98;37.69;101973.31;4986902;28;20113;-76
2021/04/24 10:33:55;;;;;;;4.88;1.67;;;;;;;19.27;36.92;101975.09;4989323;28;20041;-75
2021/04/24 10:36:20;;;;;;;3.70;1.80;;;;;;;18.76;37.52;101975.91;4989764;28;20049;-75
2021/04/24 10:38:49;;;;;;;2.15;1.38;;;;;;;18.07;36.43;101978.69;5004459;28;20051;-75
2021/04/24 10:41:24;;;;;;;6.32;1.63;;;;;;;17.81;37.48;101974.88;4986127;28;20108;-75
2021/04/24 10:44:07;;;;;;;4.30;1.60;;;;;;;17.38;38.23;101974.69;4982399;28;20062;-76
2021/04/24 10:46:36;;;;;;;5.80;1.90;;;;;;;17.63;38.87;101964.94;4982570;28;20058;-76
2021/04/24 10:49:17;;;;;;;3.95;1.60;;;;;;;18.09;36.86;101974.44;4979455;28;20088;-76
2021/04/24 10:51:53;;;;;;;3.95;1.73;;;;;;;18.33;36.87;101964.94;4990097;28;20038;-76
2021/04/24 10:54:19;;;;;;;4.70;2.28;;;;;;;18.18;36.72;101985.81;4982137;28;20125;-76
2021/04/24 10:56:44;;;;;;;5.40;1.60;;;;;;;17.81;36.98;101972.16;4998729;28;20509;-76
2021/04/24 10:59:23;;;;;;;4.18;1.80;;;;;;;18.06;37.00;101979.84;4994305;28;20030;-75
2021/04/24 11:02:07;;;;;;;5.25;1.80;;;;;;;18.42;35.65;101966.25;4983974;28;20117;-76
2021/04/24 11:04:44;;;;;;;3.97;1.48;;;;;;;18.43;35.92;101967.78;4987363;28;20030;-75
2021/04/24 11:07:29;;;;;;;2.80;1.55;;;;;;;18.61;36.98;101970.69;4986184;28;20031;-76
2021/04/24 11:10:13;;;;;;;7.05;1.60;;;;;;;19.31;36.17;101967.69;4983696;28;20038;-76
2021/04/24 11:12:43;;;;;;;3.63;1.63;;;;;;;19.62;35.10;101962.44;4981479;28;20034;-76
2021/04/24 11:15:10;;;;;;;4.75;1.42;;;;;;;19.79;34.53;101969.94;4981228;28;20698;-76
2021/04/24 11:17:37;;;;;;;4.80;1.40;;;;;;;19.53;34.20;101967.44;4989349;28;20033;-76
2021/04/24 11:20:04;;;;;;;5.70;1.50;;;;;;;19.40;35.34;101970.91;5003759;28;20544;-76
2021/04/24 11:22:38;;;;;;;6.03;1.77;;;;;;;19.33;35.04;101973.59;4986475;28;20042;-76